Wetterdaten: Woche 13.07.20 - 19.07.20 (KW29)
Datum Zeit Temp. Aussen Temp. o. S. Temp +5cm Feuchte Auss Luftdruck Regen Sonnenschein Regendauer Solar Windben Empfang
13.07.2020 00:00 15,4 C 13,3 C 12,9 C 73 % 1026,3 hPa 0,0 l/m 0,00 h 0,00 h 0 W/m 0,0 km/h (0 Bft) 96,78 %
13.07.2020 01:00 14,4 C 12,6 C 12,1 C 76 % 1026,1 hPa 0,0 l/m 0,00 h 0,00 h 0 W/m 0,0 km/h (0 Bft) 98,79 %
13.07.2020 02:00 13,6 C 11,7 C 11,4 C 79 % 1026,0 hPa 0,0 l/m 0,00 h 0,00 h 0 W/m 0,0 km/h (0 Bft) 95,34 %
13.07.2020 03:00 12,7 C 10,8 C 10,3 C 81 % 1025,6 hPa 0,0 l/m 0,00 h 0,00 h 0 W/m 0,0 km/h (0 Bft) 96,94 %
13.07.2020 04:00 11,8 C 10,0 C 9,7 C 83 % 1025,3 hPa 0,0 l/m 0,00 h 0,00 h 0 W/m 0,0 km/h (0 Bft) 98,86 %
13.07.2020 05:00 11,2 C 9,4 C 9,4 C 86 % 1024,9 hPa 0,0 l/m 0,00 h 0,00 h 6 W/m 0,0 km/h (0 Bft) 97,58 %
13.07.2020 06:00 10,8 C 10,2 C 9,7 C 89 % 1024,8 hPa 0,0 l/m 0,00 h 0,00 h 21 W/m 0,0 km/h (0 Bft) 95,77 %
13.07.2020 07:00 11,3 C 12,1 C 11,1 C 92 % 1025,0 hPa 0,0 l/m 0,00 h 0,00 h 47 W/m 0,0 km/h (0 Bft) 96,94 %
13.07.2020 08:00 13,7 C 20,0 C 16,7 C 93 % 1025,0 hPa 0,0 l/m 0,00 h 0,00 h 64 W/m 0,3 km/h (0 Bft) 97,72 %
13.07.2020 09:00 19,4 C 24,6 C 27,4 C 71 % 1024,7 hPa 0,0 l/m 0,93 h 0,00 h 506 W/m 1,4 km/h (1 Bft) 97,30 %
13.07.2020 10:00 22,5 C 27,8 C 30,1 C 60 % 1024,3 hPa 0,0 l/m 1,00 h 0,00 h 704 W/m 0,0 km/h (0 Bft) 98,37 %
13.07.2020 11:00 24,6 C 29,5 C 26,3 C 53 % 1023,9 hPa 0,0 l/m 1,00 h 0,00 h 829 W/m 2,4 km/h (1 Bft) 97,75 %
13.07.2020 12:00 25,5 C 30,6 C 25,0 C 51 % 1023,4 hPa 0,0 l/m 1,00 h 0,00 h 923 W/m 3,9 km/h (1 Bft) 97,53 %
13.07.2020 13:00 27,0 C 31,9 C 29,0 C 46 % 1022,8 hPa 0,0 l/m 1,00 h 0,00 h 978 W/m 8,0 km/h (2 Bft) 95,02 %
13.07.2020 14:00 28,0 C 32,5 C 30,2 C 45 % 1022,1 hPa 0,0 l/m 0,93 h 0,00 h 942 W/m 11,4 km/h (2 Bft) 97,32 %
13.07.2020 15:00 28,5 C 32,1 C 26,5 C 45 % 1021,4 hPa 0,0 l/m 0,97 h 0,00 h 920 W/m 7,8 km/h (2 Bft) 97,84 %
13.07.2020 16:00 27,9 C 30,2 C 27,4 C 44 % 1020,9 hPa 0,0 l/m 0,80 h 0,00 h 674 W/m 7,7 km/h (2 Bft) 99,57 %
13.07.2020 17:00 28,2 C 30,5 C 26,3 C 45 % 1020,3 hPa 0,0 l/m 0,93 h 0,00 h 589 W/m 7,2 km/h (2 Bft) 94,53 %
13.07.2020 18:00 28,4 C 28,5 C 25,3 C 44 % 1019,7 hPa 0,0 l/m 1,00 h 0,00 h 454 W/m 6,5 km/h (2 Bft) 98,16 %
13.07.2020 19:00 26,8 C 25,1 C 22,4 C 46 % 1019,3 hPa 0,0 l/m 0,70 h 0,00 h 216 W/m 4,4 km/h (1 Bft) 98,43 %
13.07.2020 20:00 24,3 C 21,8 C 19,5 C 51 % 1019,2 hPa 0,0 l/m 0,00 h 0,00 h 43 W/m 1,4 km/h (1 Bft) 97,23 %
13.07.2020 21:00 22,0 C 19,1 C 16,7 C 56 % 1019,1 hPa 0,0 l/m 0,00 h 0,00 h 13 W/m 0,1 km/h (0 Bft) 97,01 %
13.07.2020 22:00 19,6 C 16,6 C 15,1 C 63 % 1019,2 hPa 0,0 l/m 0,00 h 0,00 h 0 W/m 0,0 km/h (0 Bft) 97,58 %
13.07.2020 23:00 17,7 C 15,1 C 14,0 C 69 % 1018,9 hPa 0,0 l/m 0,00 h 0,00 h 0 W/m 0,0 km/h (0 Bft) 97,37 %
14.07.2020 00:00 16,2 C 14,1 C 13,1 C 72 % 1018,8 hPa 0,0 l/m 0,00 h 0,00 h 0 W/m 0,0 km/h (0 Bft) 97,55 %
14.07.2020 01:00 15,2 C 13,1 C 12,5 C 74 % 1018,5 hPa 0,0 l/m 0,00 h 0,00 h 0 W/m 0,0 km/h (0 Bft) 96,32 %
14.07.2020 02:00 14,2 C 12,0 C 11,7 C 78 % 1018,1 hPa 0,0 l/m 0,00 h 0,00 h 0 W/m 0,0 km/h (0 Bft) 95,53 %
14.07.2020 03:00 13,3 C 11,4 C 11,1 C 81 % 1017,5 hPa 0,0 l/m 0,00 h 0,00 h 0 W/m 0,0 km/h (0 Bft) 98,36 %
14.07.2020 04:00 12,6 C 10,7 C 10,5 C 83 % 1017,1 hPa 0,0 l/m 0,00 h 0,00 h 0 W/m 0,0 km/h (0 Bft) 98,72 %
14.07.2020 05:00 12,1 C 10,6 C 10,5 C 86 % 1016,7 hPa 0,0 l/m 0,00 h 0,00 h 7 W/m 0,0 km/h (0 Bft) 95,74 %
14.07.2020 06:00 12,0 C 11,8 C 11,2 C 90 % 1016,6 hPa 0,0 l/m 0,00 h 0,00 h 30 W/m 0,0 km/h (0 Bft) 96,54 %
14.07.2020 07:00 13,0 C 15,5 C 13,9 C 93 % 1016,4 hPa 0,0 l/m 0,00 h 0,00 h 75 W/m 0,0 km/h (0 Bft) 98,23 %
14.07.2020 08:00 15,6 C 18,4 C 16,7 C 90 % 1016,2 hPa 0,0 l/m 0,00 h 0,00 h 158 W/m 0,0 km/h (0 Bft) 98,04 %
14.07.2020 09:00 18,2 C 21,1 C 20,0 C 80 % 1016,0 hPa 0,0 l/m 0,40 h 0,00 h 284 W/m 0,1 km/h (0 Bft) 96,25 %
14.07.2020 10:00 21,4 C 24,9 C 24,7 C 66 % 1015,7 hPa 0,0 l/m 0,90 h 0,00 h 453 W/m 3,1 km/h (1 Bft) 96,83 %
14.07.2020 11:00 22,6 C 25,3 C 23,5 C 60 % 1015,4 hPa 0,0 l/m 0,73 h 0,00 h 471 W/m 6,6 km/h (2 Bft) 99,11 %
14.07.2020 12:00 23,0 C 23,5 C 22,4 C 58 % 1015,2 hPa 0,0 l/m 0,07 h 0,10 h 322 W/m 7,0 km/h (2 Bft) 97,02 %
14.07.2020 13:00 23,4 C 25,4 C 23,8 C 58 % 1014,8 hPa 0,0 l/m 0,73 h 0,07 h 467 W/m 9,4 km/h (2 Bft) 96,10 %
14.07.2020 14:00 23,0 C 22,1 C 21,2 C 63 % 1014,7 hPa 0,0 l/m 0,07 h 0,33 h 301 W/m 11,3 km/h (2 Bft) 99,20 %
14.07.2020 15:00 21,0 C 20,2 C 19,2 C 74 % 1014,7 hPa 0,0 l/m 0,17 h 0,73 h 317 W/m 8,1 km/h (2 Bft) 96,28 %
14.07.2020 16:00 19,9 C 20,0 C 19,3 C 75 % 1014,6 hPa 0,0 l/m 0,00 h 0,37 h 223 W/m 5,2 km/h (1 Bft) 97,95 %
14.07.2020 17:00 18,3 C 14,9 C 15,3 C 82 % 1014,6 hPa 0,8 l/m 0,00 h 0,90 h 110 W/m 4,4 km/h (1 Bft) 98,09 %
14.07.2020 18:00 16,6 C 14,5 C 14,8 C 90 % 1014,4 hPa 0,6 l/m 0,00 h 0,60 h 119 W/m 0,9 km/h (0 Bft) 96,77 %
14.07.2020 19:00 16,0 C 14,4 C 14,1 C 91 % 1014,1 hPa 0,0 l/m 0,00 h 0,00 h 53 W/m 4,2 km/h (1 Bft) 95,93 %
14.07.2020 20:00 15,7 C 14,4 C 13,9 C 93 % 1013,8 hPa 0,0 l/m 0,00 h 0,00 h 27 W/m 5,4 km/h (1 Bft) 98,51 %
14.07.2020 21:00 15,5 C 14,0 C 13,9 C 94 % 1013,6 hPa 0,0 l/m 0,00 h 0,00 h 9 W/m 5,8 km/h (2 Bft) 97,08 %
14.07.2020 22:00 15,3 C 13,9 C 13,6 C 94 % 1013,7 hPa 0,0 l/m 0,00 h 0,00 h 0 W/m 4,3 km/h (1 Bft) 96,96 %
14.07.2020 23:00 15,2 C 14,4 C 13,9 C 95 % 1013,6 hPa 0,0 l/m 0,00 h 0,00 h 0 W/m 2,7 km/h (1 Bft) 98,09 %
15.07.2020 00:00 15,3 C 13,9 C 13,9 C 96 % 1013,6 hPa 0,4 l/m 0,00 h 0,33 h 0 W/m 2,1 km/h (1 Bft) 96,60 %
15.07.2020 01:00 15,4 C 13,9 C 13,9 C 97 % 1013,8 hPa 0,0 l/m 0,00 h 0,00 h 0 W/m 3,1 km/h (1 Bft) 98,36 %
15.07.2020 02:00 15,1 C 13,7 C 13,7 C 97 % 1013,6 hPa 0,0 l/m 0,00 h 0,00 h 0 W/m 1,3 km/h (1 Bft) 98,22 %
15.07.2020 03:00 14,8 C 13,4 C 13,3 C 97 % 1013,5 hPa 0,0 l/m 0,00 h 0,00 h 0 W/m 1,4 km/h (1 Bft) 95,38 %
15.07.2020 04:00 14,5 C 12,9 C 12,9 C 98 % 1013,5 hPa 0,0 l/m 0,00 h 0,00 h 0 W/m 1,4 km/h (1 Bft) 99,08 %
15.07.2020 05:00 13,4 C 11,4 C 11,4 C 97 % 1013,7 hPa 0,0 l/m 0,00 h 0,00 h 6 W/m 0,1 km/h (0 Bft) 99,07 %
15.07.2020 06:00 12,6 C 11,6 C 11,4 C 97 % 1013,9 hPa 0,0 l/m 0,00 h 0,00 h 31 W/m 2,0 km/h (1 Bft) 94,25 %
15.07.2020 07:00 12,8 C 12,3 C 12,2 C 98 % 1014,3 hPa 0,0 l/m 0,00 h 0,00 h 58 W/m 3,8 km/h (1 Bft) 98,93 %
15.07.2020 08:00 13,4 C 15,1 C 13,1 C 98 % 1014,6 hPa 0,0 l/m 0,00 h 0,00 h 117 W/m 5,5 km/h (1 Bft) 98,22 %
15.07.2020 09:00 15,4 C 18,5 C 19,9 C 92 % 1014,7 hPa 0,0 l/m 0,63 h 0,00 h 351 W/m 6,8 km/h (2 Bft) 95,29 %
15.07.2020 10:00 16,8 C 18,6 C 18,4 C 80 % 1015,0 hPa 0,0 l/m 0,27 h 0,00 h 287 W/m 5,0 km/h (1 Bft) 98,38 %
15.07.2020 11:00 17,7 C 20,5 C 18,1 C 76 % 1015,2 hPa 0,0 l/m 0,33 h 0,00 h 408 W/m 6,2 km/h (2 Bft) 97,83 %
15.07.2020 12:00 18,9 C 21,5 C 19,1 C 73 % 1015,2 hPa 0,0 l/m 0,40 h 0,00 h 380 W/m 5,0 km/h (1 Bft) 98,38 %
15.07.2020 13:00 20,4 C 23,9 C 21,5 C 66 % 1015,2 hPa 0,0 l/m 0,47 h 0,00 h 513 W/m 7,4 km/h (2 Bft) 96,93 %
15.07.2020 14:00 21,7 C 25,1 C 22,7 C 62 % 1015,2 hPa 0,0 l/m 0,57 h 0,00 h 575 W/m 7,4 km/h (2 Bft) 97,46 %
15.07.2020 15:00 22,7 C 26,3 C 21,6 C 59 % 1015,1 hPa 0,0 l/m 0,63 h 0,00 h 614 W/m 9,4 km/h (2 Bft) 97,99 %
15.07.2020 16:00 23,8 C 26,6 C 23,6 C 57 % 1015,0 hPa 0,0 l/m 0,60 h 0,00 h 607 W/m 10,3 km/h (2 Bft) 97,18 %
15.07.2020 17:00 23,6 C 24,2 C 21,8 C 56 % 1014,7 hPa 0,0 l/m 0,37 h 0,00 h 358 W/m 6,6 km/h (2 Bft) 97,86 %
15.07.2020 18:00 21,5 C 20,7 C 19,5 C 61 % 1014,8 hPa 0,0 l/m 0,33 h 0,00 h 178 W/m 6,3 km/h (2 Bft) 97,02 %
15.07.2020 19:00 21,6 C 20,7 C 19,1 C 61 % 1015,0 hPa 0,0 l/m 0,40 h 0,00 h 142 W/m 4,1 km/h (1 Bft) 98,08 %
15.07.2020 20:00 20,5 C 18,9 C 18,1 C 65 % 1015,2 hPa 0,0 l/m 0,00 h 0,00 h 39 W/m 1,3 km/h (1 Bft) 97,81 %
15.07.2020 21:00 19,4 C 17,5 C 17,1 C 68 % 1015,4 hPa 0,0 l/m 0,00 h 0,00 h 7 W/m 0,5 km/h (0 Bft) 88,65 %
15.07.2020 22:00 18,4 C 16,7 C 16,6 C 73 % 1016,1 hPa 0,0 l/m 0,00 h 0,00 h 0 W/m 4,1 km/h (1 Bft) 97,53 %
15.07.2020 23:00 17,3 C 15,5 C 15,6 C 81 % 1016,4 hPa 0,0 l/m 0,00 h 0,00 h 0 W/m 3,6 km/h (1 Bft) 97,72 %
16.07.2020 00:00 16,5 C 14,8 C 14,8 C 85 % 1016,6 hPa 0,0 l/m 0,00 h 0,13 h 0 W/m 0,7 km/h (0 Bft) 97,47 %
16.07.2020 01:00 16,0 C 14,5 C 14,4 C 87 % 1016,6 hPa 0,2 l/m 0,00 h 0,40 h 0 W/m 0,0 km/h (0 Bft) 97,21 %
16.07.2020 02:00 15,8 C 13,4 C 13,4 C 89 % 1016,6 hPa 0,2 l/m 0,00 h 0,63 h 0 W/m 0,2 km/h (0 Bft) 97,01 %
16.07.2020 03:00 15,1 C 12,9 C 12,8 C 91 % 1016,4 hPa 0,0 l/m 0,00 h 0,43 h 0 W/m 0,0 km/h (0 Bft) 97,32 %
16.07.2020 04:00 14,8 C 13,2 C 12,9 C 92 % 1016,3 hPa 0,0 l/m 0,00 h 0,10 h 0 W/m 0,0 km/h (0 Bft) 96,33 %
16.07.2020 05:00 14,8 C 13,3 C 13,3 C 94 % 1016,2 hPa 0,0 l/m 0,00 h 0,00 h 4 W/m 0,7 km/h (0 Bft) 98,86 %
16.07.2020 06:00 14,8 C 14,1 C 13,6 C 94 % 1016,2 hPa 0,0 l/m 0,00 h 0,00 h 13 W/m 1,7 km/h (1 Bft) 95,14 %
16.07.2020 07:00 14,8 C 14,4 C 13,9 C 93 % 1016,4 hPa 0,0 l/m 0,00 h 0,00 h 20 W/m 4,6 km/h (1 Bft) 98,13 %
16.07.2020 08:00 14,8 C 13,5 C 13,3 C 92 % 1016,7 hPa 0,0 l/m 0,00 h 0,07 h 33 W/m 6,6 km/h (2 Bft) 99,43 %
16.07.2020 09:00 14,8 C 14,3 C 13,8 C 95 % 1016,7 hPa 0,0 l/m 0,00 h 0,00 h 63 W/m 5,9 km/h (2 Bft) 95,10 %
16.07.2020 10:00 15,3 C 14,7 C 14,2 C 96 % 1016,9 hPa 0,2 l/m 0,00 h 0,13 h 115 W/m 6,1 km/h (2 Bft) 97,72 %
16.07.2020 11:00 15,7 C 14,9 C 14,5 C 96 % 1016,9 hPa 0,2 l/m 0,00 h 0,00 h 141 W/m 7,1 km/h (2 Bft) 98,91 %
16.07.2020 12:00 16,2 C 15,9 C 15,3 C 97 % 1016,9 hPa 0,0 l/m 0,00 h 0,03 h 133 W/m 8,9 km/h (2 Bft) 96,19 %
16.07.2020 13:00 17,0 C 17,5 C 16,4 C 96 % 1016,9 hPa 0,0 l/m 0,00 h 0,00 h 175 W/m 6,2 km/h (2 Bft) 96,75 %
16.07.2020 14:00 17,9 C 19,6 C 17,5 C 92 % 1016,8 hPa 0,0 l/m 0,18 h 0,08 h 299 W/m 7,5 km/h (2 Bft) 98,77 %
16.07.2020 15:00 19,1 C 19,7 C 18,1 C 87 % 1016,8 hPa 0,0 l/m 0,03 h 0,00 h 184 W/m 5,7 km/h (1 Bft) 98,30 %
16.07.2020 16:00 18,7 C 16,6 C 16,2 C 89 % 1017,1 hPa 2,2 l/m 0,00 h 0,60 h 59 W/m 4,2 km/h (1 Bft) 95,70 %
16.07.2020 17:00 17,1 C 15,2 C 15,0 C 93 % 1017,5 hPa 0,2 l/m 0,00 h 0,07 h 80 W/m 3,2 km/h (1 Bft) 97,72 %
16.07.2020 18:00 16,9 C 16,4 C 15,5 C 96 % 1017,7 hPa 0,0 l/m 0,00 h 0,00 h 112 W/m 2,5 km/h (1 Bft) 99,59 %
16.07.2020 19:00 16,9 C 15,5 C 15,1 C 97 % 1018,1 hPa 0,0 l/m 0,00 h 0,10 h 37 W/m 6,3 km/h (2 Bft) 95,75 %
16.07.2020 20:00 15,8 C 14,0 C 14,0 C 96 % 1018,5 hPa 0,2 l/m 0,00 h 0,13 h 10 W/m 2,7 km/h (1 Bft) 97,60 %
16.07.2020 21:00 15,5 C 13,9 C 13,9 C 97 % 1019,0 hPa 0,0 l/m 0,00 h 0,00 h 7 W/m 0,3 km/h (0 Bft) 98,87 %
16.07.2020 22:00 15,3 C 13,9 C 13,8 C 97 % 1019,3 hPa 0,0 l/m 0,00 h 0,00 h 0 W/m 0,0 km/h (0 Bft) 97,43 %
16.07.2020 23:00 15,1 C 13,9 C 13,9 C 97 % 1019,7 hPa 0,0 l/m 0,00 h 0,00 h 0 W/m 0,3 km/h (0 Bft) 96,60 %
17.07.2020 00:00 15,1 C 13,9 C 13,9 C 98 % 1020,0 hPa 0,0 l/m 0,00 h 0,00 h 0 W/m 0,3 km/h (0 Bft) 98,22 %
17.07.2020 01:00 14,8 C 13,4 C 13,3 C 98 % 1019,9 hPa 0,0 l/m 0,00 h 0,00 h 0 W/m 0,2 km/h (0 Bft) 97,31 %
17.07.2020 02:00 14,7 C 13,7 C 13,3 C 98 % 1019,9 hPa 0,0 l/m 0,00 h 0,00 h 0 W/m 0,6 km/h (0 Bft) 98,79 %
17.07.2020 03:00 14,7 C 13,9 C 13,4 C 99 % 1019,9 hPa 0,0 l/m 0,00 h 0,00 h 0 W/m 0,4 km/h (0 Bft) 96,15 %
17.07.2020 04:00 14,8 C 13,7 C 13,4 C 99 % 1020,0 hPa 0,0 l/m 0,00 h 0,00 h 0 W/m 0,1 km/h (0 Bft) 97,72 %
17.07.2020 05:00 14,4 C 13,3 C 13,1 C 99 % 1020,1 hPa 0,0 l/m 0,00 h 0,00 h 7 W/m 0,0 km/h (0 Bft) 99,22 %
17.07.2020 06:00 14,4 C 13,8 C 13,4 C 99 % 1020,5 hPa 0,0 l/m 0,00 h 0,00 h 21 W/m 0,0 km/h (0 Bft) 95,50 %
17.07.2020 07:00 14,8 C 14,4 C 13,9 C 99 % 1020,9 hPa 0,0 l/m 0,00 h 0,00 h 54 W/m 0,7 km/h (0 Bft) 97,57 %
17.07.2020 08:00 15,3 C 15,0 C 14,3 C 100 % 1021,3 hPa 0,0 l/m 0,00 h 0,00 h 84 W/m 0,7 km/h (0 Bft) 99,44 %
17.07.2020 09:00 15,9 C 16,9 C 15,4 C 100 % 1021,5 hPa 0,0 l/m 0,00 h 0,00 h 154 W/m 0,2 km/h (0 Bft) 95,24 %
17.07.2020 10:00 16,9 C 19,2 C 16,5 C 99 % 1021,6 hPa 0,0 l/m 0,00 h 0,00 h 258 W/m 1,2 km/h (1 Bft) 98,42 %
17.07.2020 11:00 18,4 C 21,1 C 18,4 C 91 % 1021,6 hPa 0,0 l/m 0,00 h 0,00 h 329 W/m 1,6 km/h (1 Bft) 99,49 %
17.07.2020 12:00 20,2 C 23,1 C 20,3 C 80 % 1021,4 hPa 0,0 l/m 0,40 h 0,00 h 408 W/m 7,1 km/h (2 Bft) 95,83 %
17.07.2020 13:00 21,3 C 21,5 C 19,4 C 76 % 1021,5 hPa 0,0 l/m 0,03 h 0,10 h 200 W/m 4,7 km/h (1 Bft) 97,72 %
17.07.2020 14:00 20,6 C 21,3 C 19,3 C 79 % 1021,7 hPa 0,0 l/m 0,00 h 0,00 h 275 W/m 6,5 km/h (2 Bft) 97,61 %
17.07.2020 15:00 21,3 C 23,6 C 20,8 C 78 % 1021,4 hPa 0,0 l/m 0,50 h 0,00 h 381 W/m 5,0 km/h (1 Bft) 97,65 %
17.07.2020 16:00 22,9 C 25,2 C 21,7 C 74 % 1021,2 hPa 0,0 l/m 0,70 h 0,00 h 431 W/m 7,8 km/h (2 Bft) 96,98 %
17.07.2020 17:00 22,9 C 23,0 C 20,7 C 73 % 1021,1 hPa 0,0 l/m 0,00 h 0,00 h 228 W/m 6,3 km/h (2 Bft) 97,57 %
17.07.2020 18:00 22,4 C 22,3 C 20,4 C 74 % 1020,9 hPa 0,0 l/m 0,00 h 0,00 h 167 W/m 5,4 km/h (1 Bft) 97,47 %
17.07.2020 19:00 21,8 C 21,2 C 19,6 C 76 % 1020,7 hPa 0,0 l/m 0,00 h 0,00 h 101 W/m 3,4 km/h (1 Bft) 97,24 %
17.07.2020 20:00 21,4 C 20,0 C 18,8 C 77 % 1020,7 hPa 0,0 l/m 0,00 h 0,00 h 36 W/m 1,0 km/h (0 Bft) 98,00 %
17.07.2020 21:00 20,6 C 18,8 C 17,9 C 79 % 1020,8 hPa 0,0 l/m 0,00 h 0,00 h 7 W/m 0,3 km/h (0 Bft) 97,01 %
17.07.2020 22:00 19,8 C 18,1 C 17,1 C 82 % 1021,0 hPa 0,0 l/m 0,00 h 0,00 h 0 W/m 0,0 km/h (0 Bft) 97,22 %
17.07.2020 23:00 19,1 C 17,4 C 16,7 C 85 % 1021,1 hPa 0,0 l/m 0,00 h 0,00 h 0 W/m 0,0 km/h (0 Bft) 97,44 %
18.07.2020 00:00 18,6 C 17,0 C 16,7 C 87 % 1021,2 hPa 0,0 l/m 0,00 h 0,00 h 0 W/m 0,0 km/h (0 Bft) 97,80 %
18.07.2020 01:00 18,3 C 17,2 C 16,6 C 89 % 1021,1 hPa 0,0 l/m 0,00 h 0,00 h 0 W/m 0,0 km/h (0 Bft) 96,23 %
18.07.2020 02:00 18,2 C 16,8 C 16,2 C 90 % 1020,8 hPa 0,0 l/m 0,00 h 0,00 h 0 W/m 0,0 km/h (0 Bft) 98,09 %
18.07.2020 03:00 17,3 C 14,7 C 14,2 C 90 % 1020,5 hPa 0,0 l/m 0,00 h 0,00 h 0 W/m 0,0 km/h (0 Bft) 97,79 %
18.07.2020 04:00 16,1 C 13,7 C 13,4 C 92 % 1020,4 hPa 0,0 l/m 0,00 h 0,00 h 0 W/m 0,0 km/h (0 Bft) 95,68 %
18.07.2020 05:00 15,1 C 13,3 C 13,0 C 93 % 1020,4 hPa 0,0 l/m 0,00 h 0,00 h 5 W/m 0,0 km/h (0 Bft) 97,87 %
18.07.2020 06:00 14,7 C 13,8 C 13,0 C 94 % 1020,2 hPa 0,0 l/m 0,00 h 0,00 h 18 W/m 0,0 km/h (0 Bft) 97,15 %
18.07.2020 07:00 15,2 C 15,5 C 14,4 C 96 % 1020,1 hPa 0,0 l/m 0,00 h 0,00 h 39 W/m 0,0 km/h (0 Bft) 97,86 %
18.07.2020 08:00 17,3 C 21,1 C 18,8 C 97 % 1020,1 hPa 0,0 l/m 0,00 h 0,00 h 79 W/m 5,1 km/h (1 Bft) 98,08 %
18.07.2020 09:00 21,3 C 25,9 C 27,8 C 82 % 1020,1 hPa 0,0 l/m 0,93 h 0,00 h 437 W/m 5,2 km/h (1 Bft) 97,65 %
18.07.2020 10:00 23,9 C 28,2 C 29,7 C 72 % 1019,9 hPa 0,0 l/m 1,00 h 0,00 h 629 W/m 7,0 km/h (2 Bft) 97,86 %
18.07.2020 11:00 25,2 C 28,3 C 25,4 C 66 % 1019,6 hPa 0,0 l/m 0,73 h 0,00 h 585 W/m 7,1 km/h (2 Bft) 95,71 %
18.07.2020 12:00 25,5 C 28,6 C 24,2 C 63 % 1019,3 hPa 0,0 l/m 0,53 h 0,00 h 566 W/m 6,6 km/h (2 Bft) 98,87 %
18.07.2020 13:00 26,5 C 30,9 C 26,9 C 59 % 1018,9 hPa 0,0 l/m 0,90 h 0,00 h 820 W/m 11,5 km/h (2 Bft) 98,29 %
18.07.2020 14:00 28,0 C 32,0 C 28,9 C 56 % 1018,5 hPa 0,0 l/m 0,77 h 0,00 h 854 W/m 10,1 km/h (2 Bft) 96,31 %
18.07.2020 15:00 28,2 C 32,1 C 27,0 C 53 % 1018,2 hPa 0,0 l/m 0,93 h 0,00 h 825 W/m 9,8 km/h (2 Bft) 97,26 %
18.07.2020 16:00 28,7 C 31,3 C 27,6 C 52 % 1017,7 hPa 0,0 l/m 0,87 h 0,00 h 639 W/m 9,9 km/h (2 Bft) 97,93 %
18.07.2020 17:00 29,1 C 30,5 C 27,1 C 51 % 1017,2 hPa 0,0 l/m 0,70 h 0,00 h 482 W/m 7,5 km/h (2 Bft) 97,39 %
18.07.2020 18:00 28,1 C 27,9 C 24,7 C 54 % 1016,8 hPa 0,0 l/m 0,60 h 0,00 h 301 W/m 2,2 km/h (1 Bft) 99,00 %
18.07.2020 19:00 28,1 C 26,5 C 22,4 C 54 % 1016,6 hPa 0,0 l/m 0,50 h 0,00 h 163 W/m 0,3 km/h (0 Bft) 94,50 %
18.07.2020 20:00 26,2 C 23,5 C 20,3 C 60 % 1016,5 hPa 0,0 l/m 0,00 h 0,00 h 36 W/m 0,5 km/h (0 Bft) 97,71 %
18.07.2020 21:00 23,3 C 20,5 C 18,3 C 69 % 1016,6 hPa 0,0 l/m 0,00 h 0,00 h 9 W/m 0,0 km/h (0 Bft) 98,37 %
18.07.2020 22:00 21,5 C 19,1 C 17,5 C 74 % 1016,9 hPa 0,0 l/m 0,00 h 0,00 h 0 W/m 0,1 km/h (0 Bft) 94,98 %
18.07.2020 23:00 20,2 C 18,0 C 16,9 C 79 % 1016,9 hPa 0,0 l/m 0,00 h 0,00 h 0 W/m 0,0 km/h (0 Bft) 97,83 %
19.07.2020 00:00 19,2 C 17,5 C 16,8 C 81 % 1016,8 hPa 0,0 l/m 0,00 h 0,00 h 0 W/m 0,0 km/h (0 Bft) 98,74 %
19.07.2020 01:00 18,8 C 17,6 C 16,6 C 84 % 1016,7 hPa 0,0 l/m 0,00 h 0,00 h 0 W/m 0,0 km/h (0 Bft) 97,02 %
19.07.2020 02:00 18,4 C 16,5 C 15,7 C 85 % 1016,5 hPa 0,0 l/m 0,00 h 0,00 h 0 W/m 0,0 km/h (0 Bft) 97,57 %
19.07.2020 03:00 17,8 C 15,7 C 15,3 C 89 % 1016,3 hPa 0,0 l/m 0,00 h 0,00 h 0 W/m 0,0 km/h (0 Bft) 97,30 %
19.07.2020 04:00 17,3 C 15,6 C 15,0 C 92 % 1016,0 hPa 0,0 l/m 0,00 h 0,00 h 0 W/m 0,0 km/h (0 Bft) 96,01 %
19.07.2020 05:00 16,9 C 15,2 C 15,0 C 94 % 1015,9 hPa 0,0 l/m 0,00 h 0,00 h 3 W/m 0,0 km/h (0 Bft) 98,05 %
19.07.2020 06:00 16,6 C 15,3 C 14,9 C 95 % 1015,8 hPa 0,0 l/m 0,00 h 0,00 h 17 W/m 0,0 km/h (0 Bft) 96,63 %
19.07.2020 07:00 16,9 C 16,9 C 16,1 C 96 % 1015,8 hPa 0,0 l/m 0,00 h 0,00 h 44 W/m 0,0 km/h (0 Bft) 97,14 %
19.07.2020 08:00 18,2 C 22,0 C 19,4 C 98 % 1016,2 hPa 0,0 l/m 0,00 h 0,00 h 96 W/m 0,0 km/h (0 Bft) 97,59 %
19.07.2020 09:00 21,5 C 26,2 C 27,8 C 87 % 1016,2 hPa 0,0 l/m 1,00 h 0,00 h 434 W/m 1,4 km/h (1 Bft) 96,72 %
19.07.2020 10:00 24,5 C 28,4 C 29,8 C 75 % 1016,0 hPa 0,0 l/m 1,00 h 0,00 h 605 W/m 9,0 km/h (2 Bft) 98,01 %
19.07.2020 11:00 26,0 C 28,8 C 26,7 C 69 % 1015,7 hPa 0,0 l/m 0,90 h 0,00 h 508 W/m 7,9 km/h (2 Bft) 98,94 %
19.07.2020 12:00 26,3 C 26,9 C 25,1 C 63 % 1015,7 hPa 0,0 l/m 0,40 h 0,00 h 335 W/m 10,7 km/h (2 Bft) 95,18 %
19.07.2020 13:00 25,7 C 27,5 C 25,3 C 66 % 1015,8 hPa 0,0 l/m 0,57 h 0,00 h 437 W/m 7,9 km/h (2 Bft) 98,43 %
19.07.2020 14:00 27,8 C 32,3 C 27,9 C 61 % 1015,5 hPa 0,0 l/m 1,00 h 0,00 h 830 W/m 10,3 km/h (2 Bft) 98,71 %
19.07.2020 15:00 29,2 C 32,3 C 27,5 C 53 % 1015,1 hPa 0,0 l/m 0,87 h 0,00 h 747 W/m 11,2 km/h (2 Bft) 96,80 %
19.07.2020 16:00 29,5 C 32,0 C 28,2 C 52 % 1014,9 hPa 0,0 l/m 1,00 h 0,00 h 727 W/m 13,0 km/h (3 Bft) 98,57 %
19.07.2020 17:00 29,6 C 31,6 C 27,2 C 46 % 1014,7 hPa 0,0 l/m 0,87 h 0,00 h 624 W/m 9,8 km/h (2 Bft) 95,64 %
19.07.2020 18:00 29,0 C 29,5 C 25,9 C 43 % 1014,5 hPa 0,0 l/m 1,00 h 0,00 h 474 W/m 11,1 km/h (2 Bft) 98,21 %
19.07.2020 19:00 27,7 C 26,0 C 23,4 C 46 % 1014,5 hPa 0,0 l/m 0,67 h 0,00 h 233 W/m 7,7 km/h (2 Bft) 99,72 %
19.07.2020 20:00 24,9 C 22,5 C 21,2 C 51 % 1014,8 hPa 0,0 l/m 0,00 h 0,00 h 32 W/m 5,9 km/h (2 Bft) 96,12 %
19.07.2020 21:00 22,7 C 20,3 C 19,7 C 62 % 1015,2 hPa 0,0 l/m 0,00 h 0,00 h 10 W/m 4,3 km/h (1 Bft) 97,36 %
19.07.2020 22:00 21,1 C 19,2 C 19,1 C 79 % 1016,1 hPa 0,0 l/m 0,00 h 0,00 h 0 W/m 9,8 km/h (2 Bft) 98,93 %
19.07.2020 23:00 19,9 C 17,8 C 17,8 C 85 % 1016,8 hPa 0,0 l/m 0,00 h 0,00 h 0 W/m 4,2 km/h (1 Bft) 96,61 %
Min-Datum _ 13.07.20 13.07.20 13.07.20 19.07.20 15.07.20 - - - - 13.07.20 15.07.20
_ Min-Zeit 06:08 04:58 04:30 17:56 02:32 - - - - 00:00 21:54
Minimum _ 10,8 C 9,4 C 9,4 C 40 % 1013,4 hPa - - - - 0,0 km/h (0 Bft) 48,94 %
Max-Datum _ 19.07.20 13.07.20 13.07.20 17.07.20 13.07.20 16.07.20 16.07.20 16.07.20 15.07.20 19.07.20 13.07.20
_ Max-Zeit 17:20 14:32 13:58 07:18 00:07 16:50 14:46 14:20 14:04 16:24 00:30
Maximum _ 29,9 C 35,0 C 39,4 C 100 % 1026,4 hPa 2,2 l/m 0,08 h 0,08 h 1186 W/m 25,7 km/h
W (4 Bft)
100,00 %
Durchschnitt _ 19,2 C 19,3 C 18,0 C 79 % 1018,0 hPa #5,2 l/m #37:55 h #6:27 h 280 W/m 3,5 km/h (1 Bft) 97,37 %
© 2020 W. Hausmann